Time;durP1;ratioP1;P1;durP2;ratioP2;P2;SDS_P1;SDS_P2;PMS_P1;PMS_P2;Temp;Humidity;BMP_temperature;BMP_pressure;BME280_temperature;BME280_humidity;BME280_pressure;Samples;Min_cycle;Max_cycle;Signal;HPM_P1;HPM_P2
2022/06/15 00:02:16;;;;;;;23.48;14.82;;;;;;;16.09;56.24;102090.16;5198182;28;20487;-38
2022/06/15 00:04:48;;;;;;;20.48;14.85;;;;;;;15.99;56.31;102116.09;5200151;28;20425;-38
2022/06/15 00:07:20;;;;;;;22.73;15.18;;;;;;;15.97;56.43;102085.25;5203410;28;20392;-39
2022/06/15 00:09:54;;;;;;;25.42;15.77;;;;;;;15.78;56.47;102051.63;5202101;28;20443;-39
2022/06/15 00:12:27;;;;;;;22.02;16.15;;;;;;;15.95;56.53;102071.25;5200835;28;20440;-38
2022/06/15 00:15:01;;;;;;;25.60;15.30;;;;;;;15.81;56.65;102068.16;5200830;28;20417;-38
2022/06/15 00:17:34;;;;;;;27.02;16.17;;;;;;;15.93;56.81;102074.06;5204205;28;20495;-39
2022/06/15 00:20:08;;;;;;;24.30;15.57;;;;;;;15.75;56.86;102057.28;5203709;28;20433;-39
2022/06/15 00:22:41;;;;;;;23.98;15.82;;;;;;;15.88;56.79;102071.03;5202503;28;20417;-39
2022/06/15 00:25:15;;;;;;;31.15;17.42;;;;;;;15.92;56.98;102088.41;5201535;28;20475;-39
2022/06/15 00:27:48;;;;;;;24.25;15.75;;;;;;;15.90;57.12;102091.19;5199401;28;20762;-40
2022/06/15 00:30:21;;;;;;;21.70;15.50;;;;;;;15.91;57.21;102092.03;5204975;28;20499;-39
2022/06/15 00:32:53;;;;;;;25.92;15.98;;;;;;;15.91;57.35;102092.84;5205346;28;20416;-47
2022/06/15 00:35:26;;;;;;;24.63;15.77;;;;;;;15.91;57.18;102092.03;5204337;28;20417;-39
2022/06/15 00:37:58;;;;;;;24.45;15.48;;;;;;;15.94;57.44;102096.22;5209223;28;20806;-38
2022/06/15 00:40:32;;;;;;;25.15;15.35;;;;;;;15.96;57.39;102105.72;5179342;28;20518;-39
2022/06/15 00:43:05;;;;;;;23.77;14.88;;;;;;;15.73;57.40;102059.25;5197659;28;20902;-39
2022/06/15 00:45:37;;;;;;;23.70;15.98;;;;;;;15.84;57.32;102075.81;5208600;28;20417;-39
2022/06/15 00:48:10;;;;;;;22.42;14.85;;;;;;;15.96;57.58;102089.75;5208073;28;20496;-38
2022/06/15 00:50:42;;;;;;;21.48;14.38;;;;;;;15.94;57.62;102086.38;5205766;28;20518;-39
2022/06/15 00:53:14;;;;;;;20.58;14.43;;;;;;;15.92;57.67;102083.06;5208669;28;20872;-39
2022/06/15 00:55:50;;;;;;;22.35;14.77;;;;;;;15.87;57.82;102085.34;5205824;28;20862;-38
2022/06/15 00:58:23;;;;;;;21.60;12.57;;;;;;;15.89;57.81;102083.38;5207049;28;20414;-39
2022/06/15 01:00:56;;;;;;;17.95;12.07;;;;;;;15.84;57.93;102075.00;5205519;28;20397;-39
2022/06/15 01:03:29;;;;;;;18.00;12.30;;;;;;;15.86;58.06;102079.19;5208128;28;20421;-39
2022/06/15 01:06:11;;;;;;;20.33;11.60;;;;;;;15.90;58.24;102074.38;5206513;28;20431;-39
2022/06/15 01:08:54;;;;;;;23.30;13.25;;;;;;;15.70;58.16;102051.56;5208238;28;20420;-38
2022/06/15 01:11:54;;;;;;;20.67;12.45;;;;;;;15.93;58.33;102084.72;5203611;28;20439;-38
2022/06/15 01:15:02;;;;;;;20.20;12.95;;;;;;;15.70;58.11;102035.59;5205948;28;20523;-38
2022/06/15 01:18:01;;;;;;;17.38;12.43;;;;;;;15.93;58.18;102071.41;5204525;28;20421;-40
2022/06/15 01:20:46;;;;;;;17.67;12.18;;;;;;;15.95;58.17;102081.91;5195839;28;20505;-38
2022/06/15 01:24:16;;;;;;;16.10;10.70;;;;;;;15.90;58.31;102074.38;5207046;28;20489;-39
2022/06/15 01:27:15;;;;;;;23.17;10.43;;;;;;;15.92;58.44;102069.75;5201938;28;20421;-41
2022/06/15 01:30:21;;;;;;;23.20;10.13;;;;;;;15.90;58.47;102066.38;5204266;28;20406;-40
2022/06/15 01:33:08;;;;;;;14.95;9.98;;;;;;;15.89;58.37;102062.06;5174128;28;20413;-39
2022/06/15 01:35:53;;;;;;;15.30;10.63;;;;;;;15.89;58.49;102062.06;5203431;28;20670;-38
2022/06/15 01:38:38;;;;;;;18.08;9.40;;;;;;;15.91;58.48;102060.06;5197251;28;20402;-38
2022/06/15 01:41:18;;;;;;;17.88;9.30;;;;;;;15.95;58.40;102061.44;5203827;28;20420;-40
2022/06/15 01:43:57;;;;;;;15.50;9.25;;;;;;;15.92;58.62;102056.44;5205432;28;20786;-39
2022/06/15 01:46:31;;;;;;;16.40;9.35;;;;;;;15.87;58.66;102058.69;5200072;28;20893;-39
2022/06/15 01:49:06;;;;;;;10.73;8.32;;;;;;;15.84;58.61;102048.34;5205384;28;20410;-42
2022/06/15 01:51:45;;;;;;;18.35;10.20;;;;;;;15.85;58.71;102055.34;5204397;28;20429;-39
2022/06/15 01:54:23;;;;;;;13.20;9.38;;;;;;;15.86;58.69;102057.88;5205089;28;20524;-39
2022/06/15 01:56:57;;;;;;;14.18;9.93;;;;;;;15.85;58.67;102050.84;5210815;28;20416;-39
2022/06/15 01:59:43;;;;;;;15.00;10.63;;;;;;;15.82;58.77;102045.00;5189700;28;20441;-39
2022/06/15 02:02:24;;;;;;;16.73;9.90;;;;;;;15.45;58.69;101984.75;5195693;28;21730;-38
2022/06/15 02:05:00;;;;;;;15.73;10.10;;;;;;;15.78;58.72;102033.00;5203872;28;20552;-40
2022/06/15 02:07:39;;;;;;;17.73;9.25;;;;;;;15.75;58.74;102027.97;5203648;28;20730;-40
2022/06/15 02:10:20;;;;;;;14.30;9.63;;;;;;;15.72;58.94;102028.28;5205773;28;20538;-39
2022/06/15 02:13:01;;;;;;;15.18;8.93;;;;;;;15.67;58.84;102016.28;5207394;28;20912;-40
2022/06/15 02:15:35;;;;;;;18.02;9.13;;;;;;;15.55;59.02;102006.00;5203516;28;20772;-39
2022/06/15 02:18:15;;;;;;;14.48;9.25;;;;;;;15.61;58.93;102032.84;5206024;28;20421;-40
2022/06/15 02:20:52;;;;;;;14.38;9.23;;;;;;;15.53;59.17;102008.78;5202831;28;20764;-40
2022/06/15 02:23:27;;;;;;;14.63;8.30;;;;;;;15.56;59.18;102019.13;5201434;28;20485;-40
2022/06/15 02:26:01;;;;;;;11.98;8.65;;;;;;;15.51;59.38;102013.44;5198895;28;20409;-40
2022/06/15 02:28:36;;;;;;;20.02;8.10;;;;;;;15.53;59.38;102019.44;5202806;28;20508;-40
2022/06/15 02:31:09;;;;;;;17.95;8.55;;;;;;;15.46;59.28;102013.06;5200887;28;20428;-39
2022/06/15 02:33:51;;;;;;;17.02;8.57;;;;;;;15.35;59.48;102007.97;5205349;28;20526;-40
2022/06/15 02:36:24;;;;;;;12.70;8.60;;;;;;;15.42;59.64;102012.53;5206732;28;20451;-39
2022/06/15 02:38:56;;;;;;;11.05;7.75;;;;;;;15.40;59.57;102013.69;5196552;28;20403;-38
2022/06/15 02:41:29;;;;;;;14.25;8.02;;;;;;;15.36;59.71;102006.97;5202389;28;20427;-40
2022/06/15 02:44:03;;;;;;;14.23;8.63;;;;;;;15.32;59.65;102001.13;5203806;28;20408;-39
2022/06/15 02:46:44;;;;;;;14.82;8.15;;;;;;;15.25;59.83;102001.88;5205460;28;20829;-40
2022/06/15 02:49:18;;;;;;;13.57;8.52;;;;;;;15.35;59.93;102015.94;5203268;28;20414;-39
2022/06/15 02:51:57;;;;;;;12.65;7.70;;;;;;;15.29;59.70;102004.09;5204539;28;20405;-39
2022/06/15 02:54:36;;;;;;;11.57;7.88;;;;;;;15.33;59.74;102009.94;5201013;28;20500;-38
2022/06/15 02:57:09;;;;;;;12.90;7.88;;;;;;;15.32;59.85;102005.59;5204770;28;20428;-39
2022/06/15 02:59:42;;;;;;;13.50;7.67;;;;;;;15.01;59.91;101959.91;5205938;28;20541;-38
2022/06/15 03:02:15;;;;;;;14.55;7.88;;;;;;;15.18;59.96;101994.50;5201946;28;20516;-39
2022/06/15 03:04:50;;;;;;;15.40;8.73;;;;;;;15.27;59.88;102013.19;5205112;28;20406;-39
2022/06/15 03:07:25;;;;;;;11.00;7.17;;;;;;;15.26;60.08;102019.53;5205326;28;20571;-40
2022/06/15 03:09:58;;;;;;;14.23;7.50;;;;;;;15.22;60.03;102019.81;5204173;28;20425;-39
2022/06/15 03:12:30;;;;;;;14.57;7.75;;;;;;;15.20;60.14;102019.13;5205630;28;20432;-39
2022/06/15 03:15:03;;;;;;;10.27;6.85;;;;;;;15.18;60.16;102021.13;5205170;28;20421;-39
2022/06/15 03:17:35;;;;;;;11.82;8.05;;;;;;;15.09;60.20;102006.06;5200430;28;20432;-39
2022/06/15 03:20:12;;;;;;;10.75;7.28;;;;;;;14.91;60.07;101981.25;5200787;28;20418;-41
2022/06/15 03:22:44;;;;;;;14.65;8.52;;;;;;;15.11;60.24;102022.72;5201461;28;20427;-39
2022/06/15 03:25:17;;;;;;;14.00;8.63;;;;;;;15.07;60.15;102012.53;5201937;28;20463;-39
2022/06/15 03:27:49;;;;;;;9.38;7.70;;;;;;;15.08;60.22;102015.03;5204496;28;20486;-39
2022/06/15 03:30:22;;;;;;;15.13;8.70;;;;;;;15.02;60.17;102015.66;5201942;28;20930;-39
2022/06/15 03:32:55;;;;;;;17.75;8.98;;;;;;;14.96;60.32;102016.25;5203043;28;20415;-39
2022/06/15 03:35:34;;;;;;;13.13;8.83;;;;;;;14.97;60.32;102007.25;5200223;28;20443;-39
2022/06/15 03:38:08;;;;;;;13.38;7.97;;;;;;;15.06;60.19;102017.00;5204993;28;20483;-40
2022/06/15 03:40:43;;;;;;;13.65;7.97;;;;;;;15.05;60.18;102019.81;5203557;28;20439;-40
2022/06/15 03:43:16;;;;;;;13.38;7.65;;;;;;;15.04;60.24;102018.97;5202771;28;20445;-39
2022/06/15 03:45:48;;;;;;;11.98;8.13;;;;;;;14.96;60.22;102006.44;5202993;28;20445;-39
2022/06/15 03:48:20;;;;;;;11.70;7.88;;;;;;;15.01;60.24;102019.28;5201680;28;20405;-39
2022/06/15 03:50:54;;;;;;;12.70;8.40;;;;;;;15.02;60.34;102020.09;5202064;28;20420;-39
2022/06/15 03:53:27;;;;;;;10.98;7.70;;;;;;;15.02;60.31;102020.97;5201494;28;20422;-39
2022/06/15 03:55:59;;;;;;;14.45;8.63;;;;;;;15.00;60.24;102014.94;5204795;28;20887;-40
2022/06/15 03:58:31;;;;;;;12.07;7.88;;;;;;;14.90;60.20;101996.41;5202656;28;20433;-39
2022/06/15 04:01:04;;;;;;;14.77;7.93;;;;;;;14.92;60.27;102001.56;5200717;28;20474;-39
2022/06/15 04:03:36;;;;;;;12.57;8.30;;;;;;;14.98;60.44;102008.94;5195024;28;20549;-39
2022/06/15 04:06:10;;;;;;;15.77;9.43;;;;;;;15.03;60.39;102014.66;5206421;28;20459;-40
2022/06/15 04:08:42;;;;;;;11.60;7.82;;;;;;;14.80;60.45;101978.81;5202786;28;20563;-40
2022/06/15 04:11:58;;;;;;;11.90;8.00;;;;;;;15.02;60.49;102012.97;5206717;28;20948;-39
2022/06/15 04:14:10;;;;;;;14.05;8.40;;;;;;;14.99;60.37;102007.97;5202163;28;20437;-39
2022/06/15 04:16:43;;;;;;;13.68;8.52;;;;;;;15.07;60.39;102018.66;5203672;28;20915;-38
2022/06/15 04:19:41;;;;;;;15.32;8.48;;;;;;;15.10;60.51;102007.72;5202677;28;20431;-39
2022/06/15 04:22:15;;;;;;;11.55;8.70;;;;;;;15.13;60.65;102012.75;5203986;28;20472;-40
2022/06/15 04:24:47;;;;;;;11.73;8.50;;;;;;;15.06;60.52;102005.53;5205810;28;20494;-39
2022/06/15 04:27:20;;;;;;;10.25;8.50;;;;;;;15.21;60.54;102014.66;5199982;28;20763;-40
2022/06/15 04:29:52;;;;;;;12.27;8.35;;;;;;;15.26;60.69;102011.53;5209366;28;20437;-39
2022/06/15 04:32:24;;;;;;;10.88;8.63;;;;;;;15.27;60.55;102003.41;5209539;28;20499;-40
2022/06/15 04:34:57;;;;;;;15.68;9.30;;;;;;;15.26;60.63;101995.56;5209224;28;20480;-39
2022/06/15 04:37:33;;;;;;;17.77;10.55;;;;;;;15.35;60.79;102002.63;5211739;28;20419;-39
2022/06/15 04:40:08;;;;;;;16.52;9.05;;;;;;;15.40;60.70;102005.69;5209073;28;20850;-39
2022/06/15 04:42:41;;;;;;;14.60;9.18;;;;;;;15.43;60.69;102008.88;5206484;28;20441;-40
2022/06/15 04:45:16;;;;;;;16.08;8.75;;;;;;;15.50;60.64;102008.28;5208442;28;20475;-39
2022/06/15 04:47:48;;;;;;;18.20;8.25;;;;;;;15.57;60.78;102011.97;5210360;28;20898;-38
2022/06/15 04:50:21;;;;;;;14.25;7.93;;;;;;;15.64;60.73;102013.88;5206363;28;20424;-39
2022/06/15 04:52:55;;;;;;;12.57;6.90;;;;;;;15.71;60.80;102019.47;5216449;28;20422;-39
2022/06/15 04:55:27;;;;;;;15.52;7.32;;;;;;;15.74;60.95;102021.81;5207958;28;20413;-39
2022/06/15 04:58:00;;;;;;;12.55;6.45;;;;;;;15.75;60.95;102017.31;5200053;28;20786;-39
2022/06/15 05:00:37;;;;;;;15.48;7.05;;;;;;;15.80;60.89;102020.38;5210715;28;20413;-41
2022/06/15 05:03:09;;;;;;;14.98;7.50;;;;;;;15.87;60.90;102021.41;5203861;28;20414;-39
2022/06/15 05:05:42;;;;;;;14.25;7.45;;;;;;;16.29;60.63;102015.31;5211493;28;20409;-40
2022/06/15 05:08:15;;;;;;;11.32;5.85;;;;;;;17.88;59.14;102026.91;5206828;28;20445;-39
2022/06/15 05:10:48;;;;;;;11.70;5.65;;;;;;;19.58;57.31;102026.31;5200587;28;20406;-40
2022/06/15 05:13:20;;;;;;;10.70;4.80;;;;;;;20.94;56.10;102020.66;5210675;28;20403;-46
2022/06/15 05:15:53;;;;;;;12.70;4.47;;;;;;;22.16;55.10;102024.19;5207267;28;20887;-39
2022/06/15 05:18:25;;;;;;;8.85;4.25;;;;;;;23.42;53.50;102028.22;5207847;28;20808;-48
2022/06/15 05:20:57;;;;;;;6.95;3.75;;;;;;;24.52;52.13;102015.03;5208374;28;20513;-48
2022/06/15 05:23:31;;;;;;;10.45;3.72;;;;;;;25.76;50.45;102021.72;5209333;28;20405;-48
2022/06/15 05:26:04;;;;;;;7.25;3.28;;;;;;;26.93;48.63;102020.84;5208500;28;20943;-50
2022/06/15 05:28:37;;;;;;;6.60;3.90;;;;;;;27.75;47.22;102022.91;5207368;28;20834;-47
2022/06/15 05:31:14;;;;;;;10.20;3.75;;;;;;;28.55;45.74;102021.44;5204911;28;20452;-46
2022/06/15 05:33:53;;;;;;;8.60;3.65;;;;;;;29.50;44.26;102017.19;5209671;28;20410;-45
2022/06/15 05:36:28;;;;;;;7.38;2.95;;;;;;;30.39;42.89;102025.31;5211685;28;20410;-50
2022/06/15 05:39:04;;;;;;;6.15;3.30;;;;;;;30.72;41.99;102029.78;5210291;28;21030;-46
2022/06/15 05:41:36;;;;;;;7.80;3.03;;;;;;;30.87;41.52;102028.31;5206674;28;20426;-44
2022/06/15 05:44:09;;;;;;;6.45;2.80;;;;;;;31.20;40.48;102025.34;5211129;28;20413;-46
2022/06/15 05:46:42;;;;;;;7.15;2.80;;;;;;;31.22;40.21;102023.19;5206407;28;20414;-45
2022/06/15 05:49:15;;;;;;;9.05;3.20;;;;;;;31.31;39.26;101984.47;5208178;28;20418;-48
2022/06/15 05:51:47;;;;;;;7.15;3.20;;;;;;;31.78;38.37;102024.72;5210234;28;20638;-46
2022/06/15 05:54:22;;;;;;;7.50;3.17;;;;;;;32.31;37.84;102028.31;5200977;28;20430;-47
2022/06/15 05:56:54;;;;;;;6.07;2.63;;;;;;;32.79;36.73;102031.75;5211379;28;20408;-49
2022/06/15 05:59:26;;;;;;;9.25;3.80;;;;;;;32.77;36.50;102025.75;5199394;28;20825;-46
2022/06/15 06:01:59;;;;;;;9.57;3.05;;;;;;;32.46;36.59;102025.66;5204429;28;20915;-46
2022/06/15 06:04:31;;;;;;;6.38;3.13;;;;;;;32.56;36.04;102022.94;5179162;28;20782;-47
2022/06/15 06:07:04;;;;;;;8.25;2.72;;;;;;;32.83;35.23;102030.94;5207137;28;20478;-45
2022/06/15 06:09:39;;;;;;;6.47;3.00;;;;;;;32.89;34.72;102012.63;5215803;28;20432;-46
2022/06/15 06:12:12;;;;;;;7.40;3.20;;;;;;;33.07;34.55;102024.97;5199701;28;20517;-48
2022/06/15 06:14:44;;;;;;;8.18;3.35;;;;;;;33.04;34.03;102020.03;5181350;28;21654;-49
2022/06/15 06:17:16;;;;;;;5.63;2.70;;;;;;;33.14;33.95;102024.69;5202376;28;20424;-47
2022/06/15 06:19:49;;;;;;;5.55;2.70;;;;;;;33.08;33.46;102021.16;5212342;28;20428;-47
2022/06/15 06:22:22;;;;;;;9.48;2.75;;;;;;;33.19;33.63;102032.91;5211111;28;20420;-50
2022/06/15 06:24:55;;;;;;;6.13;2.70;;;;;;;33.08;33.48;102028.53;5204152;28;20974;-48
2022/06/15 06:27:28;;;;;;;7.40;2.50;;;;;;;32.93;33.49;102040.25;5205202;28;20518;-51
2022/06/15 06:30:00;;;;;;;8.80;2.90;;;;;;;32.81;33.39;102032.31;5208298;28;20439;-50
2022/06/15 06:32:32;;;;;;;6.43;2.72;;;;;;;32.84;33.04;102042.72;5198189;28;20431;-48
2022/06/15 06:35:07;;;;;;;8.82;2.95;;;;;;;33.23;32.71;102028.53;5182663;28;20418;-47
2022/06/15 06:37:39;;;;;;;6.22;2.90;;;;;;;32.94;32.42;102015.34;5197203;28;20421;-45
2022/06/15 06:40:16;;;;;;;7.32;2.67;;;;;;;33.05;32.49;102051.81;5196618;28;21600;-44
2022/06/15 06:42:48;;;;;;;6.72;2.58;;;;;;;32.98;32.40;102032.88;5196351;28;20496;-50
2022/06/15 06:45:21;;;;;;;9.55;2.63;;;;;;;32.87;32.67;102030.41;5202532;28;20486;-46
2022/06/15 06:47:53;;;;;;;7.57;2.40;;;;;;;32.87;32.20;102039.44;5206403;28;20427;-48
2022/06/15 06:50:26;;;;;;;6.53;2.77;;;;;;;33.18;31.65;102040.31;5208262;28;20527;-46
2022/06/15 06:52:58;;;;;;;7.57;2.53;;;;;;;33.41;31.57;102046.31;5203578;28;20416;-50
2022/06/15 06:56:01;;;;;;;7.45;2.80;;;;;;;33.85;30.86;102056.69;5200316;28;20795;-48
2022/06/15 06:58:35;;;;;;;10.85;2.63;;;;;;;33.70;31.14;102043.88;5196248;28;20435;-44
2022/06/15 07:01:07;;;;;;;8.90;2.35;;;;;;;34.04;30.53;102043.25;5203276;28;20496;-48
2022/06/15 07:03:40;;;;;;;8.20;2.60;;;;;;;33.15;31.14;101971.59;5197400;28;20428;-46
2022/06/15 07:06:12;;;;;;;8.05;2.47;;;;;;;33.59;30.93;102031.28;5196955;28;20476;-50
2022/06/15 07:08:45;;;;;;;10.45;2.22;;;;;;;34.12;30.57;102061.88;5196876;28;20443;-49
2022/06/15 07:11:19;;;;;;;8.67;2.30;;;;;;;34.53;30.27;102067.19;5197097;28;20425;-49
2022/06/15 07:13:54;;;;;;;9.93;2.30;;;;;;;34.14;30.36;102059.69;5198927;28;20483;-49
2022/06/15 07:16:27;;;;;;;7.50;2.25;;;;;;;33.71;30.42;102061.94;5194587;28;20413;-44
2022/06/15 07:19:00;;;;;;;7.63;2.77;;;;;;;33.42;30.69;102054.28;5200212;28;20899;-45
2022/06/15 07:21:32;;;;;;;9.77;3.22;;;;;;;33.27;30.90;102065.22;5193143;28;20461;-48
2022/06/15 07:24:07;;;;;;;9.25;2.22;;;;;;;33.24;30.73;102068.50;5195398;28;20915;-49
2022/06/15 07:26:47;;;;;;;7.45;2.22;;;;;;;33.67;30.17;102066.34;5196551;28;20421;-46
2022/06/15 07:29:22;;;;;;;8.57;2.42;;;;;;;33.75;30.15;102071.25;5197812;28;20413;-45
2022/06/15 07:31:57;;;;;;;8.80;2.67;;;;;;;33.85;30.15;102068.50;5200910;28;20415;-49
2022/06/15 07:34:31;;;;;;;7.88;2.30;;;;;;;33.89;30.09;102075.06;5198278;28;20527;-47
2022/06/15 07:37:04;;;;;;;5.70;2.25;;;;;;;34.29;29.93;102078.81;5195778;28;20880;-49
2022/06/15 07:39:37;;;;;;;7.90;2.60;;;;;;;34.43;29.70;102063.38;5194257;28;20494;-47
2022/06/15 07:42:12;;;;;;;4.40;2.08;;;;;;;34.32;29.44;102056.31;5198737;28;20530;-44
2022/06/15 07:44:44;;;;;;;5.63;2.28;;;;;;;34.03;29.99;102071.78;5206602;28;20479;-46
2022/06/15 07:50:07;;;;;;;7.20;2.28;;;;;;;33.75;30.17;102074.00;5204068;28;20417;-46
2022/06/15 07:52:43;;;;;;;9.02;2.15;;;;;;;33.09;30.79;102076.72;5198004;28;20511;-46
2022/06/15 07:55:20;;;;;;;8.70;2.50;;;;;;;33.00;30.89;102079.97;5203929;28;20510;-48
2022/06/15 07:57:54;;;;;;;7.55;2.08;;;;;;;32.84;30.75;102075.53;5203076;28;20417;-49
2022/06/15 08:00:27;;;;;;;10.73;2.22;;;;;;;32.28;31.36;102075.31;5201168;28;20747;-45
2022/06/15 08:03:01;;;;;;;8.18;2.10;;;;;;;31.81;31.42;102068.72;5200928;28;20429;-47
2022/06/15 08:05:39;;;;;;;7.90;2.30;;;;;;;31.50;31.55;102078.59;5206371;28;20436;-45
2022/06/15 08:08:16;;;;;;;9.63;2.42;;;;;;;31.03;32.06;102081.94;5201079;28;20912;-48
2022/06/15 08:10:49;;;;;;;8.55;2.28;;;;;;;30.58;32.38;102077.59;5212460;28;20432;-50
2022/06/15 08:13:23;;;;;;;9.40;2.17;;;;;;;30.10;32.41;102060.03;5203480;28;20559;-48
2022/06/15 08:15:56;;;;;;;7.03;2.08;;;;;;;30.16;32.32;102075.38;5205536;28;20516;-45
2022/06/15 08:18:32;;;;;;;10.55;2.95;;;;;;;29.76;32.46;102081.88;5200043;28;20467;-46
2022/06/15 08:21:14;;;;;;;8.25;2.10;;;;;;;29.68;32.52;102085.00;5207528;28;20425;-46
2022/06/15 08:23:50;;;;;;;7.60;1.97;;;;;;;30.01;32.04;102080.59;5206450;28;20471;-49
2022/06/15 08:26:28;;;;;;;7.55;1.88;;;;;;;29.56;32.31;102079.63;5210272;28;20635;-44
2022/06/15 08:29:08;;;;;;;8.07;1.98;;;;;;;28.90;32.72;102072.97;5201626;28;20417;-46
2022/06/15 08:31:41;;;;;;;8.93;2.65;;;;;;;28.84;32.68;102080.19;5203361;28;20921;-46
2022/06/15 08:34:14;;;;;;;6.20;2.35;;;;;;;28.69;32.59;102075.28;5201892;28;20468;-48
2022/06/15 08:36:46;;;;;;;10.35;2.60;;;;;;;28.36;32.74;102081.34;5200444;28;22372;-45
2022/06/15 08:39:19;;;;;;;7.85;2.65;;;;;;;28.28;32.73;102079.00;5206889;28;20417;-44
2022/06/15 08:42:12;;;;;;;7.82;2.78;;;;;;;28.12;32.72;102077.00;5204578;28;20896;-45
2022/06/15 08:45:02;;;;;;;8.40;2.90;;;;;;;27.82;33.08;102077.97;5194338;28;20892;-44
2022/06/15 08:47:58;;;;;;;5.07;2.20;;;;;;;27.77;32.87;102069.66;5202500;28;20880;-46
2022/06/15 08:50:37;;;;;;;8.40;2.08;;;;;;;27.59;33.09;102079.56;5200223;28;20909;-46
2022/06/15 08:53:17;;;;;;;9.52;2.25;;;;;;;27.19;33.45;102063.06;5206653;28;20984;-48
2022/06/15 08:55:59;;;;;;;5.88;2.17;;;;;;;26.90;33.51;102072.81;5204624;28;20536;-47
2022/06/15 08:58:43;;;;;;;6.70;1.85;;;;;;;26.93;33.43;102058.81;5203864;28;20432;-47
2022/06/15 09:01:28;;;;;;;12.52;2.83;;;;;;;26.87;33.24;102063.25;5205412;28;20432;-45
2022/06/15 09:04:15;;;;;;;9.00;2.58;;;;;;;26.61;33.48;102067.13;5193389;28;20436;-44
2022/06/15 09:07:11;;;;;;;6.57;2.07;;;;;;;26.43;33.69;102067.09;5195601;28;20883;-43
2022/06/15 09:10:02;;;;;;;9.32;2.53;;;;;;;26.04;33.90;102055.63;5194209;28;20755;-47
2022/06/15 09:12:58;;;;;;;6.38;2.50;;;;;;;25.96;34.03;102064.88;5193993;28;20882;-48
2022/06/15 09:15:41;;;;;;;9.07;1.95;;;;;;;26.00;33.81;102065.25;5193833;28;20901;-45
2022/06/15 09:18:21;;;;;;;7.68;2.08;;;;;;;25.76;33.89;102070.44;5187910;28;20464;-45
2022/06/15 09:20:58;;;;;;;9.88;2.20;;;;;;;25.45;34.23;102057.78;5198461;28;20977;-47
2022/06/15 09:23:40;;;;;;;5.73;1.80;;;;;;;25.19;34.42;102057.97;5194905;28;20471;-44
2022/06/15 09:26:22;;;;;;;7.05;1.98;;;;;;;25.16;34.32;102064.63;5202810;28;20429;-43
2022/06/15 09:29:00;;;;;;;8.70;1.80;;;;;;;25.28;33.94;102060.19;5197162;28;20874;-43
2022/06/15 09:31:41;;;;;;;7.15;2.33;;;;;;;25.41;33.79;102053.03;5196304;28;20410;-48
2022/06/15 09:34:22;;;;;;;6.15;2.00;;;;;;;25.45;33.78;102056.94;5199564;28;20429;-45
2022/06/15 09:36:57;;;;;;;7.22;1.60;;;;;;;25.37;33.86;102057.22;5201965;28;20413;-43
2022/06/15 09:39:30;;;;;;;7.18;1.75;;;;;;;25.34;33.95;102058.50;5202404;28;20414;-44
2022/06/15 09:42:12;;;;;;;6.00;2.15;;;;;;;25.40;33.97;102056.78;5204269;28;20502;-46
2022/06/15 09:44:56;;;;;;;4.65;2.13;;;;;;;25.41;33.92;102069.25;5205323;28;20418;-44
2022/06/15 09:47:48;;;;;;;7.53;1.60;;;;;;;25.48;33.93;102051.91;5203522;28;20425;-44
2022/06/15 09:50:30;;;;;;;6.72;2.58;;;;;;;25.43;34.09;102059.06;5202496;28;20425;-44
2022/06/15 09:53:19;;;;;;;7.65;2.00;;;;;;;25.29;34.20;102063.72;5203405;28;20543;-44
2022/06/15 09:55:59;;;;;;;6.72;2.28;;;;;;;25.14;34.43;102050.50;5203373;28;20402;-43
2022/06/15 09:58:36;;;;;;;6.50;2.05;;;;;;;24.71;34.37;101967.34;5200458;28;20418;-44
2022/06/15 10:01:10;;;;;;;8.00;2.60;;;;;;;25.34;34.40;102044.16;5207297;28;20509;-42
2022/06/15 10:03:46;;;;;;;5.32;1.98;;;;;;;25.35;34.32;102043.09;5207709;28;20496;-48
2022/06/15 10:06:27;;;;;;;6.17;1.90;;;;;;;25.46;34.22;102053.22;5204477;28;20509;-44
2022/06/15 10:09:06;;;;;;;6.82;2.13;;;;;;;25.13;34.30;102021.00;5199265;28;24638;-43
2022/06/15 10:11:44;;;;;;;9.13;2.03;;;;;;;25.22;34.47;102055.66;5202261;28;20421;-43
2022/06/15 10:14:28;;;;;;;5.80;2.17;;;;;;;25.35;34.65;102062.03;5197758;28;20920;-45
2022/06/15 10:17:06;;;;;;;6.32;2.28;;;;;;;25.29;34.38;102056.44;5199813;28;20785;-44
2022/06/15 10:19:39;;;;;;;4.70;1.88;;;;;;;25.24;34.26;102044.59;5193537;28;20427;-44
2022/06/15 10:22:25;;;;;;;12.15;2.95;;;;;;;25.35;34.48;102075.53;5200947;28;20418;-45
2022/06/15 10:24:59;;;;;;;6.78;1.95;;;;;;;25.10;34.45;102054.66;5201658;28;20722;-46
2022/06/15 10:27:36;;;;;;;6.03;1.63;;;;;;;25.17;34.40;102062.75;5205632;28;20464;-45
2022/06/15 10:30:20;;;;;;;5.25;1.90;;;;;;;25.29;34.05;102048.31;5204525;28;20955;-45
2022/06/15 10:33:03;;;;;;;5.88;1.80;;;;;;;25.49;33.82;102056.31;5204974;28;20777;-44
2022/06/15 10:35:37;;;;;;;6.10;2.42;;;;;;;25.41;33.91;102074.66;5183727;28;20433;-48
2022/06/15 10:38:17;;;;;;;5.10;2.20;;;;;;;25.42;33.83;102070.91;5190536;28;20751;-44
2022/06/15 10:41:45;;;;;;;6.47;2.10;;;;;;;25.42;33.81;102057.38;5214304;28;20887;-42
2022/06/15 10:43:51;;;;;;;5.85;1.98;;;;;;;25.34;33.82;102060.38;5200273;28;20782;-43
2022/06/15 10:46:24;;;;;;;6.35;2.15;;;;;;;25.54;33.75;102066.44;5204017;28;20482;-45
2022/06/15 10:48:57;;;;;;;6.70;2.10;;;;;;;25.56;33.34;102053.53;5199133;28;20422;-47
2022/06/15 10:51:35;;;;;;;4.83;1.57;;;;;;;25.73;33.33;102068.16;5201170;28;20426;-44
2022/06/15 10:54:23;;;;;;;6.47;1.95;;;;;;;25.68;33.50;102065.31;5210104;28;20482;-43
2022/06/15 11:02:50;;;;;;;6.88;2.20;;;;;;;25.86;33.13;102052.88;5228123;28;20408;-43
2022/06/15 11:05:27;;;;;;;7.60;1.90;;;;;;;25.76;33.25;102051.47;5238249;28;20974;-43
2022/06/15 11:08:04;;;;;;;6.80;2.13;;;;;;;25.70;33.27;102055.06;5225337;28;21116;-45
2022/06/15 11:11:20;;;;;;;5.47;2.00;;;;;;;25.87;33.16;102051.88;5230895;28;20420;-43
2022/06/15 11:13:57;;;;;;;7.20;2.10;;;;;;;25.89;33.08;102041.63;5227434;28;20396;-44
2022/06/15 11:19:25;;;;;;;6.13;2.95;;;;;;;26.04;32.87;102052.09;5233634;28;20406;-45
2022/06/15 11:22:01;;;;;;;8.68;3.05;;;;;;;26.04;32.97;102050.22;5228420;28;20407;-49
2022/06/15 11:24:39;;;;;;;7.30;2.92;;;;;;;26.01;33.09;102047.97;5232708;28;20432;-44
2022/06/15 11:27:19;;;;;;;5.85;2.00;;;;;;;25.80;33.21;102048.34;5228600;28;20421;-42
2022/06/15 11:29:57;;;;;;;6.63;2.40;;;;;;;25.82;33.53;102040.88;5228275;28;20886;-46
2022/06/15 11:32:43;;;;;;;8.60;2.95;;;;;;;26.04;33.27;102043.97;5234477;28;20410;-44
2022/06/15 11:35:31;;;;;;;7.20;2.75;;;;;;;26.25;33.14;102034.59;5234252;28;20427;-43
2022/06/15 11:38:16;;;;;;;6.20;2.30;;;;;;;26.24;32.98;102028.38;5232357;28;20894;-43
2022/06/15 11:40:53;;;;;;;8.60;2.30;;;;;;;26.34;32.83;102001.56;5233602;28;20905;-45
2022/06/15 11:43:33;;;;;;;7.32;2.30;;;;;;;26.76;32.66;102025.25;5231591;28;20927;-43
2022/06/15 11:46:20;;;;;;;10.20;2.92;;;;;;;26.70;32.79;102031.56;5232160;28;20417;-46
2022/06/15 11:49:11;;;;;;;11.02;2.80;;;;;;;26.58;32.78;102029.66;5232531;28;20769;-44
2022/06/15 11:52:06;;;;;;;9.10;3.05;;;;;;;26.50;32.88;102015.59;5233676;28;20417;-44
2022/06/15 11:54:59;;;;;;;7.60;3.20;;;;;;;26.25;33.28;102021.06;5230893;28;20904;-46
2022/06/15 11:57:43;;;;;;;5.90;2.85;;;;;;;26.02;33.66;102022.56;5229016;28;20510;-47
2022/06/15 12:00:26;;;;;;;10.98;2.95;;;;;;;26.10;33.50;102027.66;5232611;28;20449;-43
2022/06/15 12:03:39;;;;;;;6.65;2.97;;;;;;;25.98;33.62;102040.28;5227000;28;20482;-47
2022/06/15 12:06:22;;;;;;;9.25;2.97;;;;;;;26.19;33.42;102036.31;5231850;28;20893;-45
2022/06/15 12:09:05;;;;;;;8.30;2.87;;;;;;;26.64;33.00;102038.75;5234382;28;20429;-43
2022/06/15 12:15:05;;;;;;;9.35;2.25;;;;;;;26.68;33.08;102032.66;5234387;28;20521;-43
2022/06/15 12:17:45;;;;;;;8.80;2.38;;;;;;;26.84;33.11;102024.94;5228741;28;20419;-46
2022/06/15 12:20:27;;;;;;;9.35;2.75;;;;;;;27.04;32.47;102024.66;5231418;28;20407;-44
2022/06/15 12:23:07;;;;;;;7.60;2.42;;;;;;;26.96;32.52;102020.38;5227504;28;20583;-44